Time;durP1;ratioP1;P1;durP2;ratioP2;P2;SDS_P1;SDS_P2;PMS_P1;PMS_P2;Temp;Humidity;BMP_temperature;BMP_pressure;BME280_temperature;BME280_humidity;BME280_pressure;Samples;Min_cycle;Max_cycle;Signal;HPM_P1;HPM_P2
2023/05/01 00:00:49;;;;;;;3.10;1.80;;;13.50;76.90;;;;;;4886884;29;20037;-86
2023/05/01 00:03:16;;;;;;;4.00;1.70;;;13.60;77.00;;;;;;4887889;29;20059;-84
2023/05/01 00:05:43;;;;;;;3.45;1.90;;;13.60;77.50;;;;;;4887474;29;20057;-85
2023/05/01 00:08:09;;;;;;;3.60;1.75;;;13.60;77.00;;;;;;4884333;29;20029;-87
2023/05/01 00:10:35;;;;;;;3.50;1.85;;;13.60;77.00;;;;;;4883839;29;20506;-86
2023/05/01 00:13:01;;;;;;;3.58;1.80;;;13.60;77.00;;;;;;4883234;29;20487;-85
2023/05/01 00:15:26;;;;;;;3.08;1.77;;;13.60;77.00;;;;;;4883697;29;20033;-84
2023/05/01 00:17:53;;;;;;;3.55;2.10;;;13.60;77.00;;;;;;4884716;29;20033;-84
2023/05/01 00:20:18;;;;;;;3.65;1.75;;;13.60;77.00;;;;;;4884402;29;20029;-86
2023/05/01 00:22:44;;;;;;;3.33;1.90;;;13.60;77.00;;;;;;4882665;29;20096;-84
2023/05/01 00:25:10;;;;;;;2.95;1.58;;;13.50;76.90;;;;;;4882519;29;20447;-84
2023/05/01 00:27:35;;;;;;;4.55;1.90;;;13.50;76.90;;;;;;4882572;29;20398;-83
2023/05/01 00:30:01;;;;;;;3.15;1.67;;;13.50;76.90;;;;;;4881898;29;20117;-84
2023/05/01 00:32:26;;;;;;;3.67;1.90;;;13.60;77.00;;;;;;4881102;29;20402;-84
2023/05/01 00:34:52;;;;;;;3.90;2.00;;;13.60;77.00;;;;;;4880889;29;20493;-84
2023/05/01 00:37:17;;;;;;;4.40;1.70;;;13.50;77.00;;;;;;4865373;29;20499;-85
2023/05/01 00:39:43;;;;;;;3.63;1.80;;;13.60;77.00;;;;;;4881291;29;20025;-84
2023/05/01 00:42:08;;;;;;;3.75;1.80;;;13.50;76.90;;;;;;4880610;29;20036;-84
2023/05/01 00:44:34;;;;;;;3.15;1.70;;;13.50;77.00;;;;;;4863586;29;20056;-84
2023/05/01 00:47:01;;;;;;;4.05;1.70;;;13.50;76.90;;;;;;4880644;29;20047;-84
2023/05/01 00:49:27;;;;;;;3.60;1.80;;;13.50;76.90;;;;;;4879645;29;20037;-84
2023/05/01 00:51:53;;;;;;;2.90;1.63;;;13.50;77.00;;;;;;4879048;29;20094;-84
2023/05/01 00:54:19;;;;;;;3.08;1.90;;;13.50;77.00;;;;;;4880180;29;20510;-84
2023/05/01 00:56:46;;;;;;;3.65;1.83;;;13.50;77.00;;;;;;4880102;29;20040;-85
2023/05/01 00:59:13;;;;;;;3.72;1.85;;;13.50;76.90;;;;;;4880976;29;20104;-84
2023/05/01 01:01:40;;;;;;;3.35;2.10;;;13.60;77.00;;;;;;4880149;29;20029;-84
2023/05/01 01:04:06;;;;;;;4.40;2.03;;;13.50;76.90;;;;;;4879834;29;20066;-84
2023/05/01 01:06:57;;;;;;;4.90;2.33;;;13.40;76.90;;;;;;4879960;29;20029;-85
2023/05/01 01:09:40;;;;;;;;;;;13.50;77.00;;;;;;4879637;29;20036;-84
2023/05/01 01:12:20;;;;;;;4.18;2.03;;;13.50;77.00;;;;;;4880454;29;19908;-85
2023/05/01 01:15:10;;;;;;;3.50;2.00;;;13.50;77.00;;;;;;4878369;29;20029;-84
2023/05/01 01:17:56;;;;;;;4.10;2.00;;;13.50;76.90;;;;;;4880416;29;20025;-85
2023/05/01 01:20:45;;;;;;;4.07;2.10;;;13.50;76.90;;;;;;4882409;29;20033;-84
2023/05/01 01:23:29;;;;;;;3.67;2.10;;;13.50;76.90;;;;;;4881257;29;20062;-84
2023/05/01 01:26:31;;;;;;;3.60;1.90;;;13.50;77.50;;;;;;4881021;29;20032;-85
2023/05/01 01:29:24;;;;;;;2.88;1.80;;;13.50;77.10;;;;;;4882039;29;20025;-85
2023/05/01 01:32:08;;;;;;;4.40;2.00;;;13.60;77.00;;;;;;4882218;29;20025;-84
2023/05/01 01:34:49;;;;;;;3.40;1.75;;;13.50;76.90;;;;;;4866776;29;20021;-85
2023/05/01 01:37:27;;;;;;;;;;;13.50;76.90;;;;;;4866974;29;20099;-85
2023/05/01 01:40:08;;;;;;;4.45;2.10;;;13.50;76.90;;;;;;4880998;29;19908;-84
2023/05/01 01:42:55;;;;;;;4.35;2.00;;;13.50;76.90;;;;;;4881700;29;20025;-85
2023/05/01 01:45:28;;;;;;;3.83;1.88;;;13.50;76.90;;;;;;4865989;29;20029;-85
2023/05/01 01:47:56;;;;;;;3.53;1.98;;;13.50;76.90;;;;;;4881200;29;20036;-85
2023/05/01 01:50:25;;;;;;;6.35;2.28;;;13.50;76.90;;;;;;4880985;29;20033;-85
2023/05/01 01:52:53;;;;;;;3.42;2.05;;;13.50;76.90;;;;;;4882239;29;20025;-85
2023/05/01 01:55:24;;;;;;;3.80;2.20;;;13.50;76.90;;;;;;4881925;29;20029;-85
2023/05/01 01:57:51;;;;;;;4.60;2.20;;;13.50;76.90;;;;;;4880504;29;20036;-84
2023/05/01 02:00:17;;;;;;;4.45;2.20;;;13.50;77.00;;;;;;4880050;29;20349;-85
2023/05/01 02:02:45;;;;;;;3.40;2.08;;;13.50;76.90;;;;;;4864784;29;20119;-85
2023/05/01 02:05:14;;;;;;;4.75;2.28;;;13.50;76.90;;;;;;4880322;29;20399;-85
2023/05/01 02:07:41;;;;;;;3.88;2.00;;;13.50;76.90;;;;;;4879198;29;20124;-83
2023/05/01 02:10:10;;;;;;;4.05;2.17;;;13.50;77.00;;;;;;4878309;29;20026;-85
2023/05/01 02:12:36;;;;;;;4.63;2.35;;;13.50;76.90;;;;;;4880577;29;20124;-86
2023/05/01 02:15:03;;;;;;;4.97;2.10;;;13.50;76.90;;;;;;4880485;29;20032;-85
2023/05/01 02:17:30;;;;;;;4.22;2.30;;;13.50;76.90;;;;;;4880240;29;20028;-84
2023/05/01 02:19:57;;;;;;;3.90;2.00;;;13.50;76.90;;;;;;4879819;29;20031;-85
2023/05/01 02:22:25;;;;;;;3.75;2.00;;;13.50;76.90;;;;;;4879713;29;20443;-84
2023/05/01 02:24:53;;;;;;;4.85;2.33;;;13.50;76.90;;;;;;4879725;29;20414;-84
2023/05/01 02:27:44;;;;;;;5.50;2.55;;;13.50;76.90;;;;;;4880127;29;20084;-85
2023/05/01 02:30:10;;;;;;;4.22;2.17;;;13.50;76.90;;;;;;4878646;29;20068;-83
2023/05/01 02:32:36;;;;;;;4.10;2.40;;;13.50;76.90;;;;;;4880371;29;20037;-85
2023/05/01 02:35:02;;;;;;;4.53;2.10;;;13.50;76.90;;;;;;4882196;29;20029;-86
2023/05/01 02:37:29;;;;;;;4.22;2.25;;;13.50;76.90;;;;;;4886228;29;20479;-86
2023/05/01 02:39:55;;;;;;;4.43;2.30;;;13.50;76.90;;;;;;4886837;29;20029;-87
2023/05/01 02:42:23;;;;;;;4.35;2.17;;;13.50;76.90;;;;;;4886104;29;20035;-85
2023/05/01 02:45:01;;;;;;;3.80;2.10;;;13.50;76.90;;;;;;4885182;29;20174;-85
2023/05/01 02:47:28;;;;;;;4.00;2.00;;;13.50;76.90;;;;;;4885701;29;20085;-85
2023/05/01 02:49:55;;;;;;;4.30;2.10;;;13.50;76.90;;;;;;4884618;29;20120;-84
2023/05/01 02:52:24;;;;;;;3.40;2.15;;;13.50;76.90;;;;;;4886077;29;20037;-85
2023/05/01 02:54:50;;;;;;;4.18;2.20;;;13.50;76.90;;;;;;4886111;29;20032;-86
2023/05/01 02:57:19;;;;;;;3.58;1.90;;;13.50;76.90;;;;;;4884112;29;20418;-85
2023/05/01 02:59:45;;;;;;;4.13;2.15;;;13.50;76.90;;;;;;4885565;29;20033;-84
2023/05/01 03:02:10;;;;;;;5.35;2.17;;;13.50;76.90;;;;;;4883559;29;20040;-85
2023/05/01 03:04:36;;;;;;;4.90;2.20;;;13.50;76.80;;;;;;4883188;29;20025;-84
2023/05/01 03:07:03;;;;;;;4.05;2.20;;;13.50;76.80;;;;;;4883352;29;20043;-85
2023/05/01 03:09:30;;;;;;;3.78;2.10;;;13.50;76.80;;;;;;4883083;29;20036;-85
2023/05/01 03:11:56;;;;;;;4.07;2.13;;;13.50;76.90;;;;;;4883153;29;20110;-86
2023/05/01 03:14:21;;;;;;;3.90;2.13;;;13.50;76.80;;;;;;4883960;29;20127;-85
2023/05/01 03:16:47;;;;;;;3.35;1.88;;;13.50;76.80;;;;;;4867808;29;20494;-84
2023/05/01 03:19:13;;;;;;;5.18;2.30;;;13.50;76.80;;;;;;4868413;29;20029;-86
2023/05/01 03:21:38;;;;;;;4.55;2.33;;;13.50;76.80;;;;;;4867089;29;20029;-83
2023/05/01 03:24:04;;;;;;;3.42;2.08;;;13.50;76.80;;;;;;4867580;29;20052;-85
2023/05/01 03:26:30;;;;;;;4.70;2.25;;;13.50;76.80;;;;;;4882216;29;20041;-85
2023/05/01 03:28:55;;;;;;;3.63;2.00;;;13.50;76.80;;;;;;4867930;29;20033;-86
2023/05/01 03:31:21;;;;;;;3.95;2.03;;;13.50;76.80;;;;;;4871660;29;20124;-86
2023/05/01 03:33:46;;;;;;;4.07;1.92;;;13.50;76.80;;;;;;4871415;29;20376;-86
2023/05/01 03:36:12;;;;;;;4.13;2.40;;;13.50;76.80;;;;;;4868508;29;20135;-85
2023/05/01 03:38:38;;;;;;;4.70;2.45;;;13.50;76.80;;;;;;4868542;29;20040;-84
2023/05/01 03:41:04;;;;;;;3.88;2.30;;;13.50;76.80;;;;;;4869453;29;20025;-85
2023/05/01 03:43:30;;;;;;;5.20;2.35;;;13.50;76.80;;;;;;4869175;29;20247;-85
2023/05/01 03:45:56;;;;;;;4.75;2.20;;;13.60;76.90;;;;;;4868935;29;20455;-85
2023/05/01 03:48:22;;;;;;;4.07;2.30;;;13.50;76.80;;;;;;4868588;29;20028;-85
2023/05/01 03:50:47;;;;;;;4.00;2.08;;;13.50;76.80;;;;;;4884344;29;20033;-84
2023/05/01 03:53:13;;;;;;;3.53;2.05;;;13.50;76.80;;;;;;4864853;29;20029;-84
2023/05/01 03:55:39;;;;;;;4.35;2.20;;;13.50;76.80;;;;;;4863465;29;20033;-83
2023/05/01 03:58:05;;;;;;;3.90;2.05;;;13.50;76.70;;;;;;4879356;29;20029;-84
2023/05/01 04:00:31;;;;;;;4.03;2.20;;;13.40;76.70;;;;;;4882304;29;20029;-84
2023/05/01 04:02:57;;;;;;;4.20;2.20;;;13.40;76.70;;;;;;4866650;29;20032;-85
2023/05/01 04:05:22;;;;;;;4.03;2.08;;;13.50;76.70;;;;;;4866343;29;20491;-85
2023/05/01 04:07:48;;;;;;;3.05;1.90;;;13.50;76.70;;;;;;4881292;29;20384;-82
2023/05/01 04:10:13;;;;;;;3.75;2.13;;;13.50;76.70;;;;;;4859716;29;20029;-84
2023/05/01 04:12:39;;;;;;;3.95;2.10;;;13.40;76.80;;;;;;4879813;29;20072;-81
2023/05/01 04:15:06;;;;;;;4.95;2.30;;;13.30;76.60;;;;;;4881321;29;20025;-84
2023/05/01 04:17:31;;;;;;;3.83;2.10;;;13.50;76.70;;;;;;4880674;29;20112;-84
2023/05/01 04:19:57;;;;;;;3.50;2.10;;;13.40;76.60;;;;;;4880255;29;20048;-84
2023/05/01 04:22:22;;;;;;;4.97;2.47;;;13.40;76.70;;;;;;4880606;29;20021;-84
2023/05/01 04:24:48;;;;;;;4.05;2.30;;;13.40;76.70;;;;;;4879329;29;20483;-84
2023/05/01 04:27:14;;;;;;;4.38;2.08;;;13.40;76.70;;;;;;4880951;29;20474;-85
2023/05/01 04:29:40;;;;;;;4.10;2.30;;;13.40;76.60;;;;;;4880772;29;20055;-85
2023/05/01 04:32:06;;;;;;;4.60;2.67;;;13.50;76.70;;;;;;4880587;29;20096;-85
2023/05/01 04:34:32;;;;;;;4.13;2.47;;;13.40;76.60;;;;;;4879060;29;20439;-84
2023/05/01 04:36:57;;;;;;;4.75;2.17;;;13.40;76.60;;;;;;4877915;29;20435;-84
2023/05/01 04:39:23;;;;;;;4.53;2.08;;;13.50;76.70;;;;;;4877732;29;20022;-84
2023/05/01 04:41:48;;;;;;;4.10;2.25;;;13.50;76.70;;;;;;4879590;29;20053;-86
2023/05/01 04:44:14;;;;;;;4.30;2.22;;;13.40;76.60;;;;;;4880003;29;20036;-84
2023/05/01 04:46:39;;;;;;;4.30;2.40;;;13.40;76.60;;;;;;4879809;29;20124;-83
2023/05/01 04:49:05;;;;;;;4.38;2.55;;;13.40;76.60;;;;;;4879630;29;20060;-84
2023/05/01 04:51:30;;;;;;;4.95;2.28;;;13.40;76.60;;;;;;4879275;29;20044;-84
2023/05/01 04:53:56;;;;;;;3.90;2.20;;;13.40;76.50;;;;;;4882495;29;20055;-84
2023/05/01 04:56:21;;;;;;;4.47;2.30;;;13.50;76.60;;;;;;4881402;29;20506;-84
2023/05/01 04:58:47;;;;;;;4.93;2.22;;;13.50;76.60;;;;;;4883245;29;20040;-87
2023/05/01 05:01:12;;;;;;;4.07;2.15;;;13.50;76.60;;;;;;4882632;29;20037;-86
2023/05/01 05:03:38;;;;;;;4.10;2.05;;;13.50;76.60;;;;;;4883841;29;20491;-87
2023/05/01 05:06:04;;;;;;;5.60;2.45;;;13.40;76.50;;;;;;4882110;29;20032;-88
2023/05/01 05:08:30;;;;;;;3.97;2.13;;;13.50;76.50;;;;;;4881941;29;20037;-88
2023/05/01 05:10:57;;;;;;;3.17;1.90;;;13.50;76.50;;;;;;4915175;23;20104;-84
2023/05/01 05:13:23;;;;;;;3.47;2.03;;;13.40;76.40;;;;;;4915333;29;20020;-82
2023/05/01 05:15:48;;;;;;;4.32;2.30;;;13.50;76.50;;;;;;4929203;29;20028;-84
2023/05/01 05:18:14;;;;;;;5.03;2.50;;;13.50;76.50;;;;;;4925095;29;20120;-82
2023/05/01 05:20:44;;;;;;;5.22;2.42;;;13.20;76.30;;;;;;4910536;29;20020;-83
2023/05/01 05:23:10;;;;;;;4.10;2.10;;;13.50;76.50;;;;;;4910127;29;20032;-84
2023/05/01 05:25:36;;;;;;;6.53;2.42;;;13.50;76.50;;;;;;4883531;29;20421;-82
2023/05/01 05:28:01;;;;;;;4.22;2.10;;;13.50;76.50;;;;;;4895777;29;20048;-84
2023/05/01 05:30:29;;;;;;;4.13;2.17;;;13.50;76.50;;;;;;4896544;29;20450;-82
2023/05/01 05:32:54;;;;;;;4.43;2.20;;;13.50;76.50;;;;;;4894831;29;20044;-84
2023/05/01 05:35:23;;;;;;;4.18;2.25;;;13.50;76.50;;;;;;4879025;29;20493;-84
2023/05/01 05:37:51;;;;;;;5.25;2.53;;;13.50;76.50;;;;;;4910928;29;20127;-83
2023/05/01 05:40:19;;;;;;;4.55;2.50;;;13.40;76.40;;;;;;4900567;29;20024;-84
2023/05/01 05:42:47;;;;;;;4.15;2.28;;;13.50;76.40;;;;;;4916124;29;20505;-83
2023/05/01 05:45:22;;;;;;;4.93;2.60;;;13.60;76.50;;;;;;4900546;29;20063;-85
2023/05/01 05:47:59;;;;;;;3.80;2.08;;;13.50;76.40;;;;;;4916093;29;20084;-83
2023/05/01 05:50:55;;;;;;;5.95;2.40;;;13.50;76.40;;;;;;4914705;29;20111;-84
2023/05/01 05:53:52;;;;;;;3.35;2.00;;;13.60;76.40;;;;;;4905975;29;20042;-83
2023/05/01 05:56:53;;;;;;;;;;;;;;;;;;;;;
2023/05/01 05:59:45;;;;;;;3.42;2.00;;;13.50;76.30;;;;;;4915938;29;20042;-84
2023/05/01 06:03:09;;;;;;;;;;;;;;;;;;;;;
2023/05/01 06:08:53;;;;;;;4.53;2.40;;;13.60;76.20;;;;;;4873489;29;20115;-84
2023/05/01 06:11:43;;;;;;;4.38;2.15;;;13.50;76.20;;;;;;4914503;29;20040;-84
2023/05/01 06:14:17;;;;;;;4.00;2.10;;;13.50;76.20;;;;;;4901317;29;20032;-82
2023/05/01 06:17:03;;;;;;;3.40;2.03;;;13.70;76.20;;;;;;4915807;29;20115;-84
2023/05/01 06:20:07;;;;;;;3.65;2.20;;;13.60;76.10;;;;;;4914923;29;20069;-84
2023/05/01 06:22:35;;;;;;;3.80;2.13;;;13.60;76.10;;;;;;4899399;29;20032;-84
2023/05/01 06:25:23;;;;;;;5.85;2.33;;;13.60;76.10;;;;;;4915456;29;20077;-85
2023/05/01 06:27:55;;;;;;;4.90;2.72;;;13.60;75.80;;;;;;4896037;29;20037;-83
2023/05/01 06:30:23;;;;;;;5.55;2.80;;;13.70;75.70;;;;;;4899075;29;20028;-85
2023/05/01 06:33:17;;;;;;;5.15;2.42;;;13.60;75.40;;;;;;4914877;29;20032;-83
2023/05/01 06:36:24;;;;;;;6.10;2.90;;;13.70;75.40;;;;;;4915567;29;20032;-80
2023/05/01 08:46:20;;;;;;;6.57;2.33;;;14.30;74.50;;;;;;4914651;29;20429;-84
2023/05/01 08:48:46;;;;;;;5.90;3.08;;;14.40;74.50;;;;;;4910073;29;20250;-83
2023/05/01 08:51:15;;;;;;;4.78;2.53;;;14.40;74.50;;;;;;4917114;29;20137;-84
2023/05/01 09:21:46;;;;;;;5.30;2.83;;;14.60;74.10;;;;;;5643393;23;20088;-83
2023/05/01 09:24:11;;;;;;;5.35;2.60;;;14.60;74.10;;;;;;4936881;29;20038;-83
2023/05/01 09:26:40;;;;;;;4.47;2.70;;;14.60;74.10;;;;;;4935193;29;20106;-82
2023/05/01 09:29:09;;;;;;;5.22;2.55;;;14.60;74.10;;;;;;4934929;29;20031;-82
2023/05/01 09:31:35;;;;;;;6.05;2.72;;;14.70;74.10;;;;;;4948971;28;20027;-82
2023/05/01 09:34:02;;;;;;;4.95;2.70;;;14.70;74.00;;;;;;4966567;28;20388;-83
2023/05/01 09:36:29;;;;;;;4.70;2.40;;;14.70;74.10;;;;;;4949852;28;20065;-84
2023/05/01 09:38:56;;;;;;;5.10;2.65;;;14.70;74.00;;;;;;4968884;28;20023;-84
2023/05/01 09:41:22;;;;;;;5.05;2.55;;;14.70;74.00;;;;;;4953325;28;20030;-84
2023/05/01 09:43:55;;;;;;;5.70;2.60;;;14.70;74.20;;;;;;4954872;28;20395;-83
2023/05/01 09:46:23;;;;;;;4.95;2.60;;;14.70;74.10;;;;;;4954641;28;20023;-84
2023/05/01 09:52:32;;;;;;;5.13;2.60;;;14.70;74.20;;;;;;4972025;28;20030;-83
2023/05/01 09:55:17;;;;;;;3.83;2.20;;;14.70;74.10;;;;;;4975778;28;20071;-85
2023/05/01 09:57:45;;;;;;;4.50;2.50;;;14.70;74.10;;;;;;4959214;28;20038;-84
2023/05/01 10:00:12;;;;;;;4.47;2.58;;;14.70;74.10;;;;;;4959154;28;20027;-83
2023/05/01 10:02:39;;;;;;;5.63;2.50;;;14.70;74.10;;;;;;4959256;28;20030;-85
2023/05/01 10:05:06;;;;;;;5.70;2.70;;;14.70;74.10;;;;;;4959174;28;20085;-85
2023/05/01 10:07:32;;;;;;;5.07;2.53;;;14.80;74.00;;;;;;4958928;28;20105;-84
2023/05/01 10:09:57;;;;;;;5.20;2.42;;;14.80;73.90;;;;;;4958990;28;20566;-83
2023/05/01 10:12:28;;;;;;;6.88;2.88;;;14.80;74.00;;;;;;4958954;28;20066;-84
2023/05/01 10:14:54;;;;;;;6.68;2.60;;;14.80;73.80;;;;;;4958856;28;20033;-84
2023/05/01 10:17:20;;;;;;;4.82;2.40;;;14.80;73.90;;;;;;4958738;28;20461;-84
2023/05/01 10:19:46;;;;;;;6.10;2.40;;;14.80;73.80;;;;;;4958840;28;20042;-84
2023/05/01 10:22:13;;;;;;;5.30;2.47;;;14.80;73.70;;;;;;4976332;28;20034;-83
2023/05/01 10:24:39;;;;;;;5.70;2.55;;;14.80;73.70;;;;;;4976339;28;20031;-83
2023/05/01 10:27:09;;;;;;;4.85;2.53;;;14.90;73.90;;;;;;4959025;28;20027;-84
2023/05/01 10:29:38;;;;;;;5.28;2.53;;;14.90;73.90;;;;;;4958878;28;20077;-83
2023/05/01 10:32:08;;;;;;;6.45;2.83;;;14.90;74.40;;;;;;4958625;28;20029;-85
2023/05/01 10:34:38;;;;;;;4.93;2.38;;;14.90;73.60;;;;;;4958516;28;20054;-85
2023/05/01 10:37:11;;;;;;;4.47;2.45;;;14.90;73.50;;;;;;4976344;28;20031;-84
2023/05/01 10:39:37;;;;;;;5.05;2.50;;;14.90;73.50;;;;;;4958220;28;20126;-84
2023/05/01 10:42:04;;;;;;;5.85;2.60;;;15.00;73.50;;;;;;4958385;28;20095;-84
2023/05/01 10:44:31;;;;;;;4.63;2.47;;;15.00;73.50;;;;;;4958269;28;20041;-83
2023/05/01 10:46:56;;;;;;;5.03;2.40;;;14.90;73.40;;;;;;4958687;28;20026;-84
2023/05/01 10:49:22;;;;;;;6.32;2.40;;;15.00;73.60;;;;;;4957927;28;20081;-83
2023/05/01 10:51:57;;;;;;;4.50;2.40;;;15.00;73.70;;;;;;4957628;28;20117;-84
2023/05/01 10:54:26;;;;;;;4.18;2.42;;;15.00;73.60;;;;;;4958218;28;20022;-84
2023/05/01 10:56:53;;;;;;;4.15;2.15;;;15.00;73.50;;;;;;4958163;28;20031;-84
2023/05/01 10:59:19;;;;;;;4.95;2.25;;;15.00;73.60;;;;;;4957866;28;20027;-84
2023/05/01 11:01:47;;;;;;;4.50;2.30;;;15.00;73.70;;;;;;4957868;28;20031;-84
2023/05/01 11:04:25;;;;;;;5.22;2.30;;;15.00;73.50;;;;;;4975332;28;20071;-84
2023/05/01 11:07:09;;;;;;;4.70;2.33;;;15.00;73.60;;;;;;4957983;28;20113;-84
2023/05/01 11:09:45;;;;;;;4.88;2.47;;;15.00;74.20;;;;;;4957647;28;20039;-84
2023/05/01 11:12:13;;;;;;;5.68;2.35;;;15.10;73.70;;;;;;4997887;23;20111;-84
2023/05/01 11:15:01;;;;;;;3.75;2.13;;;15.00;73.50;;;;;;4938298;29;20028;-85
2023/05/01 11:17:42;;;;;;;5.93;2.25;;;15.00;73.40;;;;;;4937651;29;20034;-86
2023/05/01 11:20:12;;;;;;;4.25;2.08;;;15.00;73.40;;;;;;4938833;29;20099;-85
2023/05/01 11:22:39;;;;;;;4.38;2.10;;;15.00;73.40;;;;;;4954520;29;20070;-84
2023/05/01 11:25:19;;;;;;;4.75;2.20;;;15.10;73.50;;;;;;4959408;28;20019;-84
2023/05/01 11:27:48;;;;;;;5.25;2.60;;;15.00;73.40;;;;;;4957800;28;20484;-83
2023/05/01 11:30:13;;;;;;;4.75;2.05;;;15.00;73.30;;;;;;4955864;28;20118;-85
2023/05/01 11:32:43;;;;;;;3.92;2.03;;;15.10;73.30;;;;;;4962264;28;20055;-89
2023/05/01 11:35:22;;;;;;;4.30;2.10;;;15.10;73.30;;;;;;4958690;28;20091;-84
2023/05/01 11:37:54;;;;;;;4.78;2.17;;;15.10;73.40;;;;;;4958518;28;20381;-90
2023/05/01 11:40:24;;;;;;;4.68;1.98;;;15.10;73.30;;;;;;4957106;28;20502;-85
2023/05/01 11:42:51;;;;;;;4.03;1.98;;;15.10;73.40;;;;;;4975108;28;20029;-84
2023/05/01 11:45:18;;;;;;;5.03;2.30;;;15.10;73.40;;;;;;4957989;28;20165;-83
2023/05/01 11:47:43;;;;;;;4.63;1.95;;;15.10;73.30;;;;;;4956719;28;20026;-84
2023/05/01 11:50:10;;;;;;;3.60;1.98;;;15.10;73.60;;;;;;4957034;28;20027;-82
2023/05/01 11:52:43;;;;;;;3.53;1.98;;;15.10;73.70;;;;;;4954695;28;20023;-90
2023/05/01 11:55:09;;;;;;;4.45;2.10;;;15.00;73.70;;;;;;4939665;29;20031;-87
2023/05/01 11:58:04;;;;;;;4.93;2.05;;;15.00;73.80;;;;;;4937634;29;20033;-86
2023/05/01 12:00:36;;;;;;;3.72;2.10;;;15.10;73.80;;;;;;4916533;29;20031;-83
2023/05/01 12:03:06;;;;;;;;;;;15.00;73.70;;;;;;4937242;29;20027;-82
2023/05/01 12:05:35;;;;;;;4.03;2.10;;;15.00;73.70;;;;;;4936153;29;19957;-84
2023/05/01 12:08:18;;;;;;;3.65;1.92;;;15.00;73.60;;;;;;4937499;29;20528;-86
2023/05/01 12:10:45;;;;;;;4.18;2.00;;;15.00;73.70;;;;;;4937710;29;20039;-83
2023/05/01 12:13:12;;;;;;;3.72;1.90;;;15.00;73.70;;;;;;4955478;29;20094;-83
2023/05/01 12:15:43;;;;;;;3.65;1.85;;;15.00;73.80;;;;;;4936972;29;20039;-84
2023/05/01 12:18:11;;;;;;;5.07;1.95;;;15.00;73.80;;;;;;4937221;29;20027;-83
2023/05/01 12:20:37;;;;;;;4.22;2.10;;;15.00;73.90;;;;;;4954730;29;20038;-83
2023/05/01 12:23:04;;;;;;;4.55;1.90;;;15.00;73.90;;;;;;4936878;29;20058;-84
2023/05/01 12:25:32;;;;;;;3.92;2.00;;;15.00;73.90;;;;;;4938378;29;20074;-83
2023/05/01 12:28:00;;;;;;;4.75;2.20;;;15.00;74.00;;;;;;4936930;29;20730;-83
2023/05/01 12:30:26;;;;;;;3.97;1.80;;;14.90;74.10;;;;;;4954143;29;20058;-83
2023/05/01 12:32:52;;;;;;;5.82;1.90;;;14.90;74.10;;;;;;4936764;29;20447;-83
2023/05/01 12:35:18;;;;;;;4.03;2.10;;;14.90;74.20;;;;;;4937665;29;20122;-83
2023/05/01 12:37:43;;;;;;;3.22;1.70;;;14.90;74.30;;;;;;4937426;29;20400;-84
2023/05/01 12:40:15;;;;;;;3.50;1.50;;;14.90;74.30;;;;;;4937182;29;20027;-86
2023/05/01 12:42:41;;;;;;;3.38;1.77;;;14.90;74.40;;;;;;4938149;29;20023;-85
2023/05/01 12:45:09;;;;;;;4.95;2.22;;;14.90;74.40;;;;;;4954842;29;20357;-83
2023/05/01 12:47:36;;;;;;;3.95;1.80;;;14.80;75.00;;;;;;4937013;29;20031;-82
2023/05/01 12:50:02;;;;;;;3.47;1.80;;;14.80;74.50;;;;;;4937266;29;20034;-84
2023/05/01 12:52:28;;;;;;;4.18;1.70;;;14.80;74.60;;;;;;4937052;29;20082;-84
2023/05/01 12:55:01;;;;;;;4.18;1.70;;;14.80;74.60;;;;;;4954608;29;20428;-85
2023/05/01 12:57:27;;;;;;;2.90;1.75;;;14.80;74.60;;;;;;4937620;29;20548;-82
2023/05/01 12:59:59;;;;;;;4.30;1.80;;;14.80;74.70;;;;;;4937486;28;20023;-84
2023/05/01 13:02:30;;;;;;;3.47;1.80;;;14.80;74.70;;;;;;4938418;28;20023;-81
2023/05/01 13:05:07;;;;;;;3.40;1.77;;;14.80;74.70;;;;;;4956163;28;20105;-86
2023/05/01 13:07:33;;;;;;;3.53;1.80;;;14.70;74.70;;;;;;4956106;28;21021;-86
2023/05/01 13:09:59;;;;;;;3.17;1.70;;;14.80;74.80;;;;;;4956285;28;20034;-87
2023/05/01 13:12:26;;;;;;;2.97;1.65;;;14.80;74.80;;;;;;4956224;28;20058;-88
2023/05/01 13:14:52;;;;;;;3.10;1.75;;;14.70;74.80;;;;;;4977103;28;20098;-86
2023/05/01 13:17:26;;;;;;;2.97;1.67;;;14.70;74.80;;;;;;4959868;28;20483;-86
2023/05/01 13:20:01;;;;;;;3.35;1.70;;;14.70;74.80;;;;;;4959893;28;20027;-88
2023/05/01 13:22:47;;;;;;;2.75;1.60;;;14.70;74.80;;;;;;4959911;28;20023;-87
2023/05/01 13:25:19;;;;;;;3.60;1.80;;;14.70;74.90;;;;;;4959241;28;20515;-85
2023/05/01 13:27:52;;;;;;;3.60;1.60;;;14.70;74.90;;;;;;4975535;28;20050;-83
2023/05/01 13:30:20;;;;;;;3.70;1.90;;;14.70;74.90;;;;;;4953940;28;20019;-82
2023/05/01 13:32:47;;;;;;;2.75;1.70;;;14.70;74.90;;;;;;4959551;28;20027;-83
2023/05/01 13:35:22;;;;;;;3.42;1.65;;;14.60;74.80;;;;;;4976996;28;20144;-85
2023/05/01 13:37:48;;;;;;;3.72;1.80;;;14.70;74.90;;;;;;4960089;28;20033;-86
2023/05/01 13:40:13;;;;;;;3.95;1.70;;;14.70;74.90;;;;;;4963701;28;20030;-87
2023/05/01 13:42:40;;;;;;;2.63;1.70;;;14.70;74.90;;;;;;4964012;28;20027;-86
2023/05/01 13:45:06;;;;;;;2.83;1.50;;;14.70;74.90;;;;;;4964965;28;20019;-87
2023/05/01 13:47:32;;;;;;;2.83;1.50;;;14.70;74.90;;;;;;4963468;28;20074;-88
2023/05/01 13:49:57;;;;;;;2.50;1.50;;;14.70;74.90;;;;;;4963769;28;20407;-86
2023/05/01 13:52:23;;;;;;;3.25;1.50;;;14.60;74.90;;;;;;4964374;28;20042;-88
2023/05/01 13:54:51;;;;;;;2.90;1.80;;;14.60;74.90;;;;;;4959933;28;20026;-85
2023/05/01 13:57:16;;;;;;;3.92;1.70;;;14.60;74.90;;;;;;4961519;28;20031;-84
2023/05/01 13:59:44;;;;;;;3.65;1.70;;;14.70;75.00;;;;;;4962656;28;20070;-84
2023/05/01 14:02:28;;;;;;;2.67;1.50;;;14.60;75.00;;;;;;4961388;28;20570;-84
2023/05/01 14:04:54;;;;;;;2.88;1.60;;;14.60;75.00;;;;;;4962763;28;20506;-86
2023/05/01 14:07:22;;;;;;;2.80;1.70;;;14.70;75.10;;;;;;4962741;28;20037;-83
2023/05/01 14:09:56;;;;;;;3.53;1.67;;;14.60;75.10;;;;;;4979606;28;20027;-85
2023/05/01 14:12:31;;;;;;;4.68;1.60;;;14.60;75.10;;;;;;4962528;28;20035;-83
2023/05/01 14:14:58;;;;;;;3.05;1.50;;;14.60;75.10;;;;;;4962261;28;20109;-84
2023/05/01 14:17:31;;;;;;;3.42;1.55;;;14.60;75.10;;;;;;4962306;28;20030;-83
2023/05/01 14:19:57;;;;;;;2.47;1.50;;;14.60;75.10;;;;;;4963302;28;20030;-85
2023/05/01 14:22:22;;;;;;;2.67;1.40;;;14.60;75.10;;;;;;4962645;28;20026;-86
2023/05/01 14:24:48;;;;;;;4.35;1.70;;;14.60;75.10;;;;;;4962466;28;20030;-86
2023/05/01 14:27:14;;;;;;;4.07;1.67;;;14.60;75.10;;;;;;4961857;28;20034;-85
2023/05/01 14:29:42;;;;;;;3.33;1.60;;;14.60;75.10;;;;;;4961716;28;20034;-86
2023/05/01 14:32:09;;;;;;;4.03;1.40;;;14.60;75.10;;;;;;4961378;28;20034;-86
2023/05/01 14:34:38;;;;;;;2.25;1.33;;;14.60;75.20;;;;;;4982562;28;20095;-87
2023/05/01 14:37:04;;;;;;;5.10;1.50;;;14.60;75.10;;;;;;4964142;28;20426;-86
2023/05/01 14:39:31;;;;;;;2.67;1.55;;;14.50;75.10;;;;;;4964315;28;20027;-86
2023/05/01 14:41:58;;;;;;;3.50;1.58;;;14.60;75.20;;;;;;4981057;28;20592;-87
2023/05/01 14:44:27;;;;;;;2.33;1.35;;;14.50;75.20;;;;;;4964186;28;20053;-86
2023/05/01 14:46:53;;;;;;;4.80;1.50;;;14.60;75.30;;;;;;4963319;28;20373;-86
2023/05/01 14:49:23;;;;;;;3.42;1.60;;;14.50;75.30;;;;;;4981179;28;20114;-86
2023/05/01 14:51:49;;;;;;;3.58;1.50;;;14.50;75.30;;;;;;4963244;28;20046;-86
2023/05/01 14:54:15;;;;;;;4.00;1.50;;;14.60;75.40;;;;;;4958194;28;20029;-86
2023/05/01 14:56:45;;;;;;;4.10;1.67;;;14.60;75.40;;;;;;4943920;29;20111;-86
2023/05/01 14:59:11;;;;;;;2.65;1.48;;;14.50;75.40;;;;;;4958387;29;20396;-86
2023/05/01 15:01:38;;;;;;;3.28;1.30;;;14.50;75.40;;;;;;4943495;29;20034;-86
2023/05/01 15:04:06;;;;;;;2.60;1.50;;;14.50;75.50;;;;;;4943178;29;20714;-86
2023/05/01 15:06:34;;;;;;;3.67;1.40;;;14.50;75.50;;;;;;4942691;29;20404;-86
2023/05/01 15:08:59;;;;;;;3.72;1.70;;;14.50;75.60;;;;;;4942459;29;20034;-86
2023/05/01 15:11:25;;;;;;;2.25;1.30;;;14.50;75.60;;;;;;4942442;29;20055;-86
2023/05/01 15:13:51;;;;;;;2.70;1.33;;;14.50;75.70;;;;;;4942628;29;20055;-86
2023/05/01 15:16:17;;;;;;;3.05;1.58;;;14.50;75.70;;;;;;4942367;29;20613;-87
2023/05/01 15:18:42;;;;;;;2.95;1.60;;;14.50;75.70;;;;;;4959290;28;20023;-86
2023/05/01 15:21:08;;;;;;;5.28;1.52;;;14.50;75.80;;;;;;4941398;29;20547;-86
2023/05/01 15:23:33;;;;;;;3.53;1.50;;;14.50;75.80;;;;;;4941476;29;20026;-86
2023/05/01 15:26:00;;;;;;;3.55;1.38;;;14.50;75.80;;;;;;4941508;29;20023;-86
2023/05/01 15:28:25;;;;;;;2.90;1.50;;;14.50;75.90;;;;;;4958338;28;20511;-85
2023/05/01 15:30:51;;;;;;;2.85;1.23;;;14.40;75.80;;;;;;4940576;29;20035;-85
2023/05/01 15:33:18;;;;;;;3.55;1.38;;;14.50;75.90;;;;;;4957307;29;20075;-86
2023/05/01 15:35:51;;;;;;;5.32;1.60;;;14.50;75.90;;;;;;4941359;28;20027;-86
2023/05/01 15:38:17;;;;;;;3.97;1.42;;;14.40;75.90;;;;;;4937228;29;20117;-83
2023/05/01 15:40:42;;;;;;;2.72;1.38;;;14.40;75.90;;;;;;4939883;28;20449;-83
2023/05/01 15:43:08;;;;;;;4.43;1.60;;;14.40;75.90;;;;;;4955557;28;20019;-82
2023/05/01 15:45:33;;;;;;;3.65;1.40;;;14.40;75.90;;;;;;4954922;28;20122;-83